Sheridan Lake, CO (81071)

9:07 PM MST en Noviembre 27, 2014 (GMT -0700)
Tribune | Change Station
CLOSE
Current Station
Estación meteorológica personal
Location: Tribune, KS
Altura: 3600 ft
Estaciones meteorológicas cercanas

Alt 3600 ft 38.47 °N, 101.75 °W | Updated 1 minute ago

Despejado
Despejado
44.6 ° F
Sensación térmica 42 ° F
N
5.0
Viento Variable Viento desde SO
Gusts 8.0 mph

Hoy
Alta -- | Baja -- ° F
--% Posibilidad de precipitaciones
Ayer
Alta -- | Baja -- ° F
Precip. -- pul
6:43 AM 4:29 PM
Creciente, 36% visible
Presión 30.11 pul
Visibilidad 10.0 Millas
Nubes Despejado
Vientos helados 42 ° F
Punto de rocío 29 ° F
Humedad 54%
Precipitaciones 0.00 pul
Espesor de la nieve No disponible.
UV 0 de una escala de 12
Polen .10 de una escala de 12
Calidad del aire No disponible.
Flu Activity No disponible.
METAR KLAA 280353Z AUTO 21007KT 10SM CLR M02/M05 A3006 RMK AO2 SLP195 T10171050

More Conditions Fewer Conditions

Presión 30.11 pul
Visibilidad 10.0 Millas
Nubes Despejado
Vientos helados 42 ° F
Punto de rocío 29 ° F
Humedad 54%
Precipitaciones 0.00 pul
Espesor de la nieve No disponible.
UV 0 de una escala de 12
Polen .10 de una escala de 12
Calidad del aire No disponible.
Flu Activity No disponible.
METAR KLAA 280353Z AUTO 21007KT 10SM CLR M02/M05 A3006 RMK AO2 SLP195 T10171050

More Conditions Fewer Conditions

10-Day Weather Forecast

Almanac

Astronomía

Nov. 27, 2014 Salida Puesta
Hora real
Crepúsculo civil
Crepúsculo náutico
Crepúsculo astronómico
Luna
Horas de luz
Horas de luz
Tomorrow will be .
, % of the Moon is Illuminated

Extremos de hoy

Máximos del estado Bajos del estado

Community

WunderPhotos

Upload Photos

1,774,176 ¡fotos cargadas!

WunderBlogs® & News

Nearby

Calidad del aire

  Calidad del aire Índice AQ Contaminante
Not available.

Grosos de nieve

Estación Profundido Altura

Actividad de terremotos

Ciudad Distance Mag. Tiempo y dato
Magnitud mínima muestra es 2,5.

Temperaturas de aguas costeras

Lugar Temperatura

Estaciones meteorológicas cercanas